sensor_id;sensor_type;location;lat;lon;timestamp;P1;durP1;ratioP1;P2;durP2;ratioP2
58242;SDS011;50118;53.232;8.252;2022-11-23T00:01:09;7.38;;;4.07;;
58242;SDS011;50118;53.232;8.252;2022-11-23T00:03:41;8.43;;;4.30;;
58242;SDS011;50118;53.232;8.252;2022-11-23T00:06:07;8.88;;;3.90;;
58242;SDS011;50118;53.232;8.252;2022-11-23T00:08:33;7.88;;;4.10;;
58242;SDS011;50118;53.232;8.252;2022-11-23T00:10:58;8.13;;;4.10;;
58242;SDS011;50118;53.232;8.252;2022-11-23T00:13:24;8.48;;;3.88;;
58242;SDS011;50118;53.232;8.252;2022-11-23T00:15:51;7.63;;;3.90;;
58242;SDS011;50118;53.232;8.252;2022-11-23T00:18:16;8.90;;;4.15;;
58242;SDS011;50118;53.232;8.252;2022-11-23T00:20:41;6.78;;;3.78;;
58242;SDS011;50118;53.232;8.252;2022-11-23T00:23:07;6.68;;;3.70;;
58242;SDS011;50118;53.232;8.252;2022-11-23T00:25:33;8.85;;;3.63;;
58242;SDS011;50118;53.232;8.252;2022-11-23T00:27:59;7.97;;;3.80;;
58242;SDS011;50118;53.232;8.252;2022-11-23T00:30:24;8.00;;;4.00;;
58242;SDS011;50118;53.232;8.252;2022-11-23T00:32:49;7.32;;;3.75;;
58242;SDS011;50118;53.232;8.252;2022-11-23T00:35:15;9.75;;;3.53;;
58242;SDS011;50118;53.232;8.252;2022-11-23T00:37:40;5.88;;;3.58;;
58242;SDS011;50118;53.232;8.252;2022-11-23T00:40:06;6.25;;;3.15;;
58242;SDS011;50118;53.232;8.252;2022-11-23T00:42:32;5.38;;;3.67;;
58242;SDS011;50118;53.232;8.252;2022-11-23T00:44:57;9.07;;;3.75;;
58242;SDS011;50118;53.232;8.252;2022-11-23T00:47:22;5.47;;;3.67;;
58242;SDS011;50118;53.232;8.252;2022-11-23T00:49:48;8.38;;;3.70;;
58242;SDS011;50118;53.232;8.252;2022-11-23T00:52:13;8.45;;;3.95;;
58242;SDS011;50118;53.232;8.252;2022-11-23T00:54:38;8.73;;;3.72;;
58242;SDS011;50118;53.232;8.252;2022-11-23T00:57:04;6.43;;;3.50;;
58242;SDS011;50118;53.232;8.252;2022-11-23T00:59:29;7.63;;;3.78;;
58242;SDS011;50118;53.232;8.252;2022-11-23T01:01:54;5.95;;;3.58;;
58242;SDS011;50118;53.232;8.252;2022-11-23T01:04:20;7.07;;;4.07;;
58242;SDS011;50118;53.232;8.252;2022-11-23T01:06:45;7.20;;;3.40;;
58242;SDS011;50118;53.232;8.252;2022-11-23T01:09:12;6.40;;;3.40;;
58242;SDS011;50118;53.232;8.252;2022-11-23T01:11:43;8.02;;;3.90;;
58242;SDS011;50118;53.232;8.252;2022-11-23T01:14:09;6.55;;;3.70;;
58242;SDS011;50118;53.232;8.252;2022-11-23T01:16:36;6.07;;;3.50;;
58242;SDS011;50118;53.232;8.252;2022-11-23T01:19:04;6.15;;;3.60;;
58242;SDS011;50118;53.232;8.252;2022-11-23T01:21:34;6.67;;;3.90;;
58242;SDS011;50118;53.232;8.252;2022-11-23T01:24:10;9.57;;;4.20;;
58242;SDS011;50118;53.232;8.252;2022-11-23T01:26:38;6.35;;;3.35;;
58242;SDS011;50118;53.232;8.252;2022-11-23T01:29:04;6.15;;;3.55;;
58242;SDS011;50118;53.232;8.252;2022-11-23T01:31:29;7.68;;;3.80;;
58242;SDS011;50118;53.232;8.252;2022-11-23T01:33:55;8.73;;;4.18;;
58242;SDS011;50118;53.232;8.252;2022-11-23T01:36:24;7.80;;;4.10;;
58242;SDS011;50118;53.232;8.252;2022-11-23T01:38:51;7.38;;;4.03;;
58242;SDS011;50118;53.232;8.252;2022-11-23T01:41:18;6.05;;;3.80;;
58242;SDS011;50118;53.232;8.252;2022-11-23T01:43:47;5.55;;;3.65;;
58242;SDS011;50118;53.232;8.252;2022-11-23T01:46:13;5.22;;;3.60;;
58242;SDS011;50118;53.232;8.252;2022-11-23T01:48:43;8.57;;;4.10;;
58242;SDS011;50118;53.232;8.252;2022-11-23T01:51:14;6.93;;;3.80;;
58242;SDS011;50118;53.232;8.252;2022-11-23T01:53:41;7.78;;;3.97;;
58242;SDS011;50118;53.232;8.252;2022-11-23T01:56:11;5.82;;;3.70;;
58242;SDS011;50118;53.232;8.252;2022-11-23T01:58:41;6.25;;;3.75;;
58242;SDS011;50118;53.232;8.252;2022-11-23T02:01:10;7.30;;;3.67;;
58242;SDS011;50118;53.232;8.252;2022-11-23T02:03:37;6.35;;;3.90;;
58242;SDS011;50118;53.232;8.252;2022-11-23T02:06:06;8.40;;;4.28;;
58242;SDS011;50118;53.232;8.252;2022-11-23T02:08:35;6.35;;;3.85;;
58242;SDS011;50118;53.232;8.252;2022-11-23T02:11:01;6.88;;;3.65;;
58242;SDS011;50118;53.232;8.252;2022-11-23T02:13:27;6.40;;;3.60;;
58242;SDS011;50118;53.232;8.252;2022-11-23T02:15:54;5.90;;;3.95;;
58242;SDS011;50118;53.232;8.252;2022-11-23T02:18:22;7.60;;;3.80;;
58242;SDS011;50118;53.232;8.252;2022-11-23T02:20:49;7.97;;;3.70;;
58242;SDS011;50118;53.232;8.252;2022-11-23T02:26:04;7.20;;;3.90;;
58242;SDS011;50118;53.232;8.252;2022-11-23T02:28:41;5.15;;;3.60;;
58242;SDS011;50118;53.232;8.252;2022-11-23T02:31:10;8.27;;;4.18;;
58242;SDS011;50118;53.232;8.252;2022-11-23T02:33:38;6.20;;;3.60;;
58242;SDS011;50118;53.232;8.252;2022-11-23T02:41:59;6.95;;;3.80;;
58242;SDS011;50118;53.232;8.252;2022-11-23T02:46:59;8.18;;;3.92;;
58242;SDS011;50118;53.232;8.252;2022-11-23T02:49:24;6.10;;;3.70;;
58242;SDS011;50118;53.232;8.252;2022-11-23T02:51:50;7.00;;;3.80;;
58242;SDS011;50118;53.232;8.252;2022-11-23T02:54:16;5.55;;;3.50;;
58242;SDS011;50118;53.232;8.252;2022-11-23T02:56:41;7.07;;;3.50;;
58242;SDS011;50118;53.232;8.252;2022-11-23T02:59:06;6.50;;;3.50;;
58242;SDS011;50118;53.232;8.252;2022-11-23T03:01:32;5.95;;;3.72;;
58242;SDS011;50118;53.232;8.252;2022-11-23T03:03:57;6.88;;;3.72;;
58242;SDS011;50118;53.232;8.252;2022-11-23T03:06:23;7.65;;;4.10;;
58242;SDS011;50118;53.232;8.252;2022-11-23T03:08:48;6.75;;;4.32;;
58242;SDS011;50118;53.232;8.252;2022-11-23T03:11:14;5.78;;;4.07;;
58242;SDS011;50118;53.232;8.252;2022-11-23T03:13:39;6.75;;;3.72;;
58242;SDS011;50118;53.232;8.252;2022-11-23T03:16:04;6.75;;;3.95;;
58242;SDS011;50118;53.232;8.252;2022-11-23T03:18:30;7.75;;;3.80;;
58242;SDS011;50118;53.232;8.252;2022-11-23T03:21:00;6.03;;;3.80;;
58242;SDS011;50118;53.232;8.252;2022-11-23T03:25:54;5.82;;;4.00;;
58242;SDS011;50118;53.232;8.252;2022-11-23T03:28:21;8.02;;;3.90;;
58242;SDS011;50118;53.232;8.252;2022-11-23T03:30:47;6.03;;;3.58;;
58242;SDS011;50118;53.232;8.252;2022-11-23T03:33:12;7.45;;;3.70;;
58242;SDS011;50118;53.232;8.252;2022-11-23T03:35:38;8.45;;;3.67;;
58242;SDS011;50118;53.232;8.252;2022-11-23T03:38:04;6.45;;;3.88;;
58242;SDS011;50118;53.232;8.252;2022-11-23T03:40:29;6.18;;;3.72;;
58242;SDS011;50118;53.232;8.252;2022-11-23T03:42:54;7.65;;;3.50;;
58242;SDS011;50118;53.232;8.252;2022-11-23T03:45:20;8.23;;;3.80;;
58242;SDS011;50118;53.232;8.252;2022-11-23T03:47:45;8.25;;;3.47;;
58242;SDS011;50118;53.232;8.252;2022-11-23T03:50:11;7.78;;;3.80;;
58242;SDS011;50118;53.232;8.252;2022-11-23T03:52:36;6.75;;;4.47;;
58242;SDS011;50118;53.232;8.252;2022-11-23T03:55:02;6.90;;;4.30;;
58242;SDS011;50118;53.232;8.252;2022-11-23T03:57:27;6.70;;;4.40;;
58242;SDS011;50118;53.232;8.252;2022-11-23T03:59:53;7.95;;;4.63;;
58242;SDS011;50118;53.232;8.252;2022-11-23T04:02:18;9.20;;;4.72;;
58242;SDS011;50118;53.232;8.252;2022-11-23T04:04:43;9.43;;;4.30;;
58242;SDS011;50118;53.232;8.252;2022-11-23T04:07:09;7.55;;;4.38;;
58242;SDS011;50118;53.232;8.252;2022-11-23T04:09:34;8.93;;;4.68;;
58242;SDS011;50118;53.232;8.252;2022-11-23T04:12:00;8.27;;;4.70;;
58242;SDS011;50118;53.232;8.252;2022-11-23T04:14:25;8.85;;;5.07;;
58242;SDS011;50118;53.232;8.252;2022-11-23T04:16:51;9.82;;;6.00;;
58242;SDS011;50118;53.232;8.252;2022-11-23T04:19:16;11.85;;;5.97;;
58242;SDS011;50118;53.232;8.252;2022-11-23T04:21:41;10.73;;;4.97;;
58242;SDS011;50118;53.232;8.252;2022-11-23T04:24:07;12.60;;;6.10;;
58242;SDS011;50118;53.232;8.252;2022-11-23T04:26:32;9.32;;;5.70;;
58242;SDS011;50118;53.232;8.252;2022-11-23T04:28:58;10.45;;;5.20;;
58242;SDS011;50118;53.232;8.252;2022-11-23T04:31:23;10.23;;;6.13;;
58242;SDS011;50118;53.232;8.252;2022-11-23T04:33:48;12.30;;;6.05;;
58242;SDS011;50118;53.232;8.252;2022-11-23T04:36:14;11.43;;;5.82;;
58242;SDS011;50118;53.232;8.252;2022-11-23T04:38:39;10.10;;;5.82;;
58242;SDS011;50118;53.232;8.252;2022-11-23T04:41:05;14.55;;;6.03;;
58242;SDS011;50118;53.232;8.252;2022-11-23T04:43:30;13.32;;;6.32;;
58242;SDS011;50118;53.232;8.252;2022-11-23T04:45:56;11.07;;;5.72;;
58242;SDS011;50118;53.232;8.252;2022-11-23T04:48:21;10.75;;;5.30;;
58242;SDS011;50118;53.232;8.252;2022-11-23T04:50:47;10.20;;;5.57;;
58242;SDS011;50118;53.232;8.252;2022-11-23T04:53:13;10.73;;;6.10;;
58242;SDS011;50118;53.232;8.252;2022-11-23T04:55:38;12.90;;;5.88;;
58242;SDS011;50118;53.232;8.252;2022-11-23T04:58:03;10.35;;;6.13;;
58242;SDS011;50118;53.232;8.252;2022-11-23T05:00:29;10.10;;;5.85;;
58242;SDS011;50118;53.232;8.252;2022-11-23T05:02:57;12.13;;;5.85;;
58242;SDS011;50118;53.232;8.252;2022-11-23T05:05:23;11.55;;;6.53;;
58242;SDS011;50118;53.232;8.252;2022-11-23T05:07:49;9.07;;;5.80;;
58242;SDS011;50118;53.232;8.252;2022-11-23T05:10:14;12.45;;;6.22;;
58242;SDS011;50118;53.232;8.252;2022-11-23T05:12:40;9.88;;;6.13;;
58242;SDS011;50118;53.232;8.252;2022-11-23T05:15:05;12.80;;;6.53;;
58242;SDS011;50118;53.232;8.252;2022-11-23T05:17:31;11.63;;;6.30;;
58242;SDS011;50118;53.232;8.252;2022-11-23T05:19:58;10.35;;;5.65;;
58242;SDS011;50118;53.232;8.252;2022-11-23T05:22:23;11.27;;;5.95;;
58242;SDS011;50118;53.232;8.252;2022-11-23T05:24:49;12.48;;;6.93;;
58242;SDS011;50118;53.232;8.252;2022-11-23T05:27:14;11.07;;;6.00;;
58242;SDS011;50118;53.232;8.252;2022-11-23T05:29:40;12.68;;;5.95;;
58242;SDS011;50118;53.232;8.252;2022-11-23T05:32:05;11.82;;;6.35;;
58242;SDS011;50118;53.232;8.252;2022-11-23T05:34:31;11.10;;;6.38;;
58242;SDS011;50118;53.232;8.252;2022-11-23T05:36:56;9.82;;;5.97;;
58242;SDS011;50118;53.232;8.252;2022-11-23T05:39:21;10.60;;;6.47;;
58242;SDS011;50118;53.232;8.252;2022-11-23T05:41:47;11.75;;;6.55;;
58242;SDS011;50118;53.232;8.252;2022-11-23T05:44:12;11.90;;;6.68;;
58242;SDS011;50118;53.232;8.252;2022-11-23T05:46:38;11.50;;;6.80;;
58242;SDS011;50118;53.232;8.252;2022-11-23T05:49:03;15.50;;;7.93;;
58242;SDS011;50118;53.232;8.252;2022-11-23T05:51:28;13.27;;;7.40;;
58242;SDS011;50118;53.232;8.252;2022-11-23T05:53:54;14.95;;;6.82;;
58242;SDS011;50118;53.232;8.252;2022-11-23T05:56:21;12.30;;;7.25;;
58242;SDS011;50118;53.232;8.252;2022-11-23T05:58:46;12.80;;;6.97;;
58242;SDS011;50118;53.232;8.252;2022-11-23T06:01:11;15.65;;;7.40;;
58242;SDS011;50118;53.232;8.252;2022-11-23T06:03:37;14.40;;;7.50;;
58242;SDS011;50118;53.232;8.252;2022-11-23T06:06:02;14.32;;;7.60;;
58242;SDS011;50118;53.232;8.252;2022-11-23T06:08:28;12.75;;;6.90;;
58242;SDS011;50118;53.232;8.252;2022-11-23T06:10:53;12.90;;;7.40;;
58242;SDS011;50118;53.232;8.252;2022-11-23T06:13:19;14.65;;;7.55;;
58242;SDS011;50118;53.232;8.252;2022-11-23T06:15:44;13.07;;;7.43;;
58242;SDS011;50118;53.232;8.252;2022-11-23T06:18:10;15.55;;;7.68;;
58242;SDS011;50118;53.232;8.252;2022-11-23T06:20:35;12.68;;;7.15;;
58242;SDS011;50118;53.232;8.252;2022-11-23T06:23:00;15.35;;;7.00;;
58242;SDS011;50118;53.232;8.252;2022-11-23T06:25:26;12.68;;;7.28;;
58242;SDS011;50118;53.232;8.252;2022-11-23T06:27:55;18.38;;;7.72;;
58242;SDS011;50118;53.232;8.252;2022-11-23T06:30:22;15.18;;;8.07;;
58242;SDS011;50118;53.232;8.252;2022-11-23T06:32:48;14.63;;;7.78;;
58242;SDS011;50118;53.232;8.252;2022-11-23T06:35:14;14.90;;;7.22;;
58242;SDS011;50118;53.232;8.252;2022-11-23T06:37:39;15.18;;;7.70;;
58242;SDS011;50118;53.232;8.252;2022-11-23T06:40:05;15.10;;;8.07;;
58242;SDS011;50118;53.232;8.252;2022-11-23T06:42:31;15.85;;;7.68;;
58242;SDS011;50118;53.232;8.252;2022-11-23T06:44:56;13.95;;;7.40;;
58242;SDS011;50118;53.232;8.252;2022-11-23T06:47:22;16.63;;;7.43;;
58242;SDS011;50118;53.232;8.252;2022-11-23T06:49:47;13.57;;;6.95;;
58242;SDS011;50118;53.232;8.252;2022-11-23T06:52:13;12.73;;;7.57;;
58242;SDS011;50118;53.232;8.252;2022-11-23T06:54:38;14.15;;;7.70;;
58242;SDS011;50118;53.232;8.252;2022-11-23T06:57:06;14.88;;;7.43;;
58242;SDS011;50118;53.232;8.252;2022-11-23T06:59:32;14.27;;;7.60;;
58242;SDS011;50118;53.232;8.252;2022-11-23T07:01:57;13.93;;;7.35;;
58242;SDS011;50118;53.232;8.252;2022-11-23T07:04:22;15.00;;;8.63;;
58242;SDS011;50118;53.232;8.252;2022-11-23T07:06:48;14.13;;;7.65;;
58242;SDS011;50118;53.232;8.252;2022-11-23T07:09:13;15.65;;;8.05;;
58242;SDS011;50118;53.232;8.252;2022-11-23T07:11:39;14.80;;;7.68;;
58242;SDS011;50118;53.232;8.252;2022-11-23T07:14:04;15.07;;;7.18;;
58242;SDS011;50118;53.232;8.252;2022-11-23T07:16:30;16.55;;;7.43;;
58242;SDS011;50118;53.232;8.252;2022-11-23T07:18:56;15.73;;;7.78;;
58242;SDS011;50118;53.232;8.252;2022-11-23T07:21:21;16.92;;;8.27;;
58242;SDS011;50118;53.232;8.252;2022-11-23T07:23:47;15.95;;;7.68;;
58242;SDS011;50118;53.232;8.252;2022-11-23T07:26:12;13.60;;;8.05;;
58242;SDS011;50118;53.232;8.252;2022-11-23T07:28:38;15.40;;;8.15;;
58242;SDS011;50118;53.232;8.252;2022-11-23T07:31:03;15.32;;;8.05;;
58242;SDS011;50118;53.232;8.252;2022-11-23T07:33:28;16.63;;;9.23;;
58242;SDS011;50118;53.232;8.252;2022-11-23T07:35:54;19.33;;;8.57;;
58242;SDS011;50118;53.232;8.252;2022-11-23T07:38:19;15.75;;;7.93;;
58242;SDS011;50118;53.232;8.252;2022-11-23T07:40:47;15.02;;;8.00;;
58242;SDS011;50118;53.232;8.252;2022-11-23T07:43:13;16.73;;;7.88;;
58242;SDS011;50118;53.232;8.252;2022-11-23T07:45:38;17.35;;;8.63;;
58242;SDS011;50118;53.232;8.252;2022-11-23T07:48:05;14.77;;;7.90;;
58242;SDS011;50118;53.232;8.252;2022-11-23T07:50:32;13.27;;;7.75;;
58242;SDS011;50118;53.232;8.252;2022-11-23T07:53:00;13.98;;;7.40;;
58242;SDS011;50118;53.232;8.252;2022-11-23T07:55:26;13.77;;;8.30;;
58242;SDS011;50118;53.232;8.252;2022-11-23T07:57:53;15.27;;;7.60;;
58242;SDS011;50118;53.232;8.252;2022-11-23T08:00:19;16.90;;;7.82;;
58242;SDS011;50118;53.232;8.252;2022-11-23T08:02:46;13.25;;;6.93;;
58242;SDS011;50118;53.232;8.252;2022-11-23T08:05:12;14.60;;;7.40;;
58242;SDS011;50118;53.232;8.252;2022-11-23T08:07:37;14.73;;;7.22;;
58242;SDS011;50118;53.232;8.252;2022-11-23T08:10:03;13.25;;;7.22;;
58242;SDS011;50118;53.232;8.252;2022-11-23T08:12:29;12.82;;;7.18;;
58242;SDS011;50118;53.232;8.252;2022-11-23T08:14:54;14.38;;;7.25;;
58242;SDS011;50118;53.232;8.252;2022-11-23T08:17:19;13.50;;;7.05;;
58242;SDS011;50118;53.232;8.252;2022-11-23T08:19:45;12.90;;;6.50;;
58242;SDS011;50118;53.232;8.252;2022-11-23T08:22:10;11.55;;;6.28;;
58242;SDS011;50118;53.232;8.252;2022-11-23T08:24:35;13.13;;;5.93;;
58242;SDS011;50118;53.232;8.252;2022-11-23T08:27:01;11.55;;;6.43;;
58242;SDS011;50118;53.232;8.252;2022-11-23T08:29:26;14.82;;;6.10;;
58242;SDS011;50118;53.232;8.252;2022-11-23T08:31:52;11.40;;;5.95;;
58242;SDS011;50118;53.232;8.252;2022-11-23T08:34:17;11.50;;;5.63;;
58242;SDS011;50118;53.232;8.252;2022-11-23T08:36:43;10.38;;;6.15;;
58242;SDS011;50118;53.232;8.252;2022-11-23T08:39:09;12.63;;;5.47;;
58242;SDS011;50118;53.232;8.252;2022-11-23T08:41:35;11.70;;;5.65;;
58242;SDS011;50118;53.232;8.252;2022-11-23T08:44:02;10.38;;;5.35;;
58242;SDS011;50118;53.232;8.252;2022-11-23T08:46:28;11.88;;;5.60;;
58242;SDS011;50118;53.232;8.252;2022-11-23T08:48:53;10.48;;;5.60;;
58242;SDS011;50118;53.232;8.252;2022-11-23T08:51:19;12.05;;;5.43;;
58242;SDS011;50118;53.232;8.252;2022-11-23T08:53:48;16.05;;;6.03;;
58242;SDS011;50118;53.232;8.252;2022-11-23T08:56:14;11.45;;;5.65;;
58242;SDS011;50118;53.232;8.252;2022-11-23T08:58:40;12.80;;;5.60;;
58242;SDS011;50118;53.232;8.252;2022-11-23T09:01:09;10.93;;;6.00;;
58242;SDS011;50118;53.232;8.252;2022-11-23T09:03:39;13.35;;;6.57;;
58242;SDS011;50118;53.232;8.252;2022-11-23T09:06:05;11.93;;;6.22;;
58242;SDS011;50118;53.232;8.252;2022-11-23T09:08:30;11.20;;;5.97;;
58242;SDS011;50118;53.232;8.252;2022-11-23T09:11:02;11.48;;;5.88;;
58242;SDS011;50118;53.232;8.252;2022-11-23T09:13:29;12.85;;;6.50;;
58242;SDS011;50118;53.232;8.252;2022-11-23T09:15:58;12.30;;;6.70;;
58242;SDS011;50118;53.232;8.252;2022-11-23T09:18:25;13.70;;;6.50;;
58242;SDS011;50118;53.232;8.252;2022-11-23T09:20:51;13.80;;;7.40;;
58242;SDS011;50118;53.232;8.252;2022-11-23T09:23:17;11.68;;;7.05;;
58242;SDS011;50118;53.232;8.252;2022-11-23T09:25:42;13.27;;;6.70;;
58242;SDS011;50118;53.232;8.252;2022-11-23T09:28:11;13.55;;;6.25;;
58242;SDS011;50118;53.232;8.252;2022-11-23T09:30:38;12.70;;;7.07;;
58242;SDS011;50118;53.232;8.252;2022-11-23T09:33:05;13.05;;;6.97;;
58242;SDS011;50118;53.232;8.252;2022-11-23T09:35:32;12.05;;;6.75;;
58242;SDS011;50118;53.232;8.252;2022-11-23T09:37:58;13.10;;;7.35;;
58242;SDS011;50118;53.232;8.252;2022-11-23T09:40:24;13.30;;;7.50;;
58242;SDS011;50118;53.232;8.252;2022-11-23T09:45:51;12.65;;;7.07;;
58242;SDS011;50118;53.232;8.252;2022-11-23T09:53:40;15.88;;;7.68;;
58242;SDS011;50118;53.232;8.252;2022-11-23T09:58:47;13.43;;;7.50;;
58242;SDS011;50118;53.232;8.252;2022-11-23T10:01:20;12.18;;;7.38;;
58242;SDS011;50118;53.232;8.252;2022-11-23T10:03:58;13.30;;;7.88;;
58242;SDS011;50118;53.232;8.252;2022-11-23T10:06:27;11.52;;;6.88;;
58242;SDS011;50118;53.232;8.252;2022-11-23T10:14:31;14.52;;;7.88;;
58242;SDS011;50118;53.232;8.252;2022-11-23T10:17:22;12.80;;;7.43;;
58242;SDS011;50118;53.232;8.252;2022-11-23T10:22:56;13.25;;;7.60;;
58242;SDS011;50118;53.232;8.252;2022-11-23T10:25:23;14.13;;;7.78;;
58242;SDS011;50118;53.232;8.252;2022-11-23T10:27:52;13.65;;;7.28;;
58242;SDS011;50118;53.232;8.252;2022-11-23T10:30:21;15.15;;;8.20;;
58242;SDS011;50118;53.232;8.252;2022-11-23T10:32:52;11.07;;;7.60;;
58242;SDS011;50118;53.232;8.252;2022-11-23T10:35:27;16.00;;;7.90;;
58242;SDS011;50118;53.232;8.252;2022-11-23T10:40:37;13.93;;;7.68;;
58242;SDS011;50118;53.232;8.252;2022-11-23T10:43:17;13.82;;;8.05;;
58242;SDS011;50118;53.232;8.252;2022-11-23T10:45:47;11.70;;;8.05;;
58242;SDS011;50118;53.232;8.252;2022-11-23T10:48:13;11.70;;;7.28;;
58242;SDS011;50118;53.232;8.252;2022-11-23T10:51:18;13.75;;;7.88;;
58242;SDS011;50118;53.232;8.252;2022-11-23T10:54:00;15.60;;;8.30;;
58242;SDS011;50118;53.232;8.252;2022-11-23T10:56:27;13.80;;;7.90;;
58242;SDS011;50118;53.232;8.252;2022-11-23T10:58:53;14.18;;;8.30;;
58242;SDS011;50118;53.232;8.252;2022-11-23T11:01:23;12.00;;;8.15;;
58242;SDS011;50118;53.232;8.252;2022-11-23T11:03:50;10.88;;;7.15;;
58242;SDS011;50118;53.232;8.252;2022-11-23T11:06:35;11.45;;;7.30;;
58242;SDS011;50118;53.232;8.252;2022-11-23T11:09:02;12.32;;;7.30;;
58242;SDS011;50118;53.232;8.252;2022-11-23T11:11:29;11.15;;;7.43;;
58242;SDS011;50118;53.232;8.252;2022-11-23T11:14:02;10.68;;;7.55;;
58242;SDS011;50118;53.232;8.252;2022-11-23T11:16:45;9.60;;;6.85;;
58242;SDS011;50118;53.232;8.252;2022-11-23T11:21:51;10.55;;;6.60;;
58242;SDS011;50118;53.232;8.252;2022-11-23T11:24:17;11.32;;;6.90;;
58242;SDS011;50118;53.232;8.252;2022-11-23T11:26:51;11.73;;;6.70;;
58242;SDS011;50118;53.232;8.252;2022-11-23T11:29:46;12.85;;;7.20;;
58242;SDS011;50118;53.232;8.252;2022-11-23T11:34:46;12.32;;;6.72;;
58242;SDS011;50118;53.232;8.252;2022-11-23T11:42:40;11.45;;;7.05;;
58242;SDS011;50118;53.232;8.252;2022-11-23T11:45:15;10.20;;;6.38;;
58242;SDS011;50118;53.232;8.252;2022-11-23T11:47:52;11.57;;;6.50;;
58242;SDS011;50118;53.232;8.252;2022-11-23T11:50:21;13.38;;;6.55;;
58242;SDS011;50118;53.232;8.252;2022-11-23T11:52:50;10.52;;;6.45;;
58242;SDS011;50118;53.232;8.252;2022-11-23T11:58:03;12.32;;;6.18;;
58242;SDS011;50118;53.232;8.252;2022-11-23T12:00:33;12.27;;;7.13;;
58242;SDS011;50118;53.232;8.252;2022-11-23T12:03:09;13.57;;;6.55;;
58242;SDS011;50118;53.232;8.252;2022-11-23T12:05:58;10.48;;;6.30;;
58242;SDS011;50118;53.232;8.252;2022-11-23T12:08:45;10.70;;;5.95;;
58242;SDS011;50118;53.232;8.252;2022-11-23T12:11:16;10.38;;;5.93;;
58242;SDS011;50118;53.232;8.252;2022-11-23T12:13:43;11.52;;;5.55;;
58242;SDS011;50118;53.232;8.252;2022-11-23T12:18:43;9.80;;;5.93;;
58242;SDS011;50118;53.232;8.252;2022-11-23T12:21:21;12.40;;;5.70;;
58242;SDS011;50118;53.232;8.252;2022-11-23T12:37:21;12.65;;;5.15;;
58242;SDS011;50118;53.232;8.252;2022-11-23T12:43:12;7.85;;;4.57;;
58242;SDS011;50118;53.232;8.252;2022-11-23T12:45:56;9.45;;;4.18;;
58242;SDS011;50118;53.232;8.252;2022-11-23T12:56:47;7.68;;;3.80;;
58242;SDS011;50118;53.232;8.252;2022-11-23T12:59:22;7.63;;;3.90;;
58242;SDS011;50118;53.232;8.252;2022-11-23T13:01:52;7.95;;;3.83;;
58242;SDS011;50118;53.232;8.252;2022-11-23T13:15:15;5.50;;;2.63;;
58242;SDS011;50118;53.232;8.252;2022-11-23T13:17:49;8.45;;;2.33;;
58242;SDS011;50118;53.232;8.252;2022-11-23T13:22:57;8.85;;;2.60;;
58242;SDS011;50118;53.232;8.252;2022-11-23T13:25:24;7.78;;;2.35;;
58242;SDS011;50118;53.232;8.252;2022-11-23T13:42:56;5.13;;;1.83;;
58242;SDS011;50118;53.232;8.252;2022-11-23T13:50:37;7.38;;;1.85;;
58242;SDS011;50118;53.232;8.252;2022-11-23T13:53:18;5.57;;;1.80;;
58242;SDS011;50118;53.232;8.252;2022-11-23T13:55:46;4.82;;;1.77;;
58242;SDS011;50118;53.232;8.252;2022-11-23T14:00:53;5.80;;;1.85;;
58242;SDS011;50118;53.232;8.252;2022-11-23T14:09:32;4.88;;;1.60;;
58242;SDS011;50118;53.232;8.252;2022-11-23T14:11:51;5.68;;;1.70;;
58242;SDS011;50118;53.232;8.252;2022-11-23T14:14:56;8.35;;;2.10;;
58242;SDS011;50118;53.232;8.252;2022-11-23T14:17:47;6.43;;;1.90;;
58242;SDS011;50118;53.232;8.252;2022-11-23T14:43:25;6.13;;;1.83;;
58242;SDS011;50118;53.232;8.252;2022-11-23T14:45:53;3.95;;;1.60;;
58242;SDS011;50118;53.232;8.252;2022-11-23T14:50:54;7.47;;;1.58;;
58242;SDS011;50118;53.232;8.252;2022-11-23T14:53:32;6.15;;;1.88;;
58242;SDS011;50118;53.232;8.252;2022-11-23T14:56:00;3.90;;;1.67;;
58242;SDS011;50118;53.232;8.252;2022-11-23T14:58:27;6.30;;;2.20;;
58242;SDS011;50118;53.232;8.252;2022-11-23T15:00:58;7.55;;;2.47;;
58242;SDS011;50118;53.232;8.252;2022-11-23T15:03:26;12.00;;;3.58;;
58242;SDS011;50118;53.232;8.252;2022-11-23T15:06:02;16.75;;;5.68;;
58242;SDS011;50118;53.232;8.252;2022-11-23T15:08:42;18.08;;;5.90;;
58242;SDS011;50118;53.232;8.252;2022-11-23T15:11:16;11.15;;;3.78;;
58242;SDS011;50118;53.232;8.252;2022-11-23T15:13:49;13.20;;;3.30;;
58242;SDS011;50118;53.232;8.252;2022-11-23T15:16:16;10.75;;;4.07;;
58242;SDS011;50118;53.232;8.252;2022-11-23T15:18:43;9.95;;;3.08;;
58242;SDS011;50118;53.232;8.252;2022-11-23T15:23:44;5.93;;;2.13;;
58242;SDS011;50118;53.232;8.252;2022-11-23T15:26:12;5.65;;;2.17;;
58242;SDS011;50118;53.232;8.252;2022-11-23T15:28:40;6.40;;;1.95;;
58242;SDS011;50118;53.232;8.252;2022-11-23T15:31:16;4.18;;;1.60;;
58242;SDS011;50118;53.232;8.252;2022-11-23T15:33:57;8.35;;;2.50;;
58242;SDS011;50118;53.232;8.252;2022-11-23T15:36:29;6.10;;;1.60;;
58242;SDS011;50118;53.232;8.252;2022-11-23T15:38:58;5.75;;;1.88;;
58242;SDS011;50118;53.232;8.252;2022-11-23T15:41:25;7.63;;;2.30;;
58242;SDS011;50118;53.232;8.252;2022-11-23T15:43:59;7.95;;;1.65;;
58242;SDS011;50118;53.232;8.252;2022-11-23T15:51:27;5.47;;;1.92;;
58242;SDS011;50118;53.232;8.252;2022-11-23T15:53:57;9.48;;;2.30;;
58242;SDS011;50118;53.232;8.252;2022-11-23T15:56:31;7.95;;;2.00;;
58242;SDS011;50118;53.232;8.252;2022-11-23T15:59:14;6.32;;;1.60;;
58242;SDS011;50118;53.232;8.252;2022-11-23T16:01:42;6.97;;;2.33;;
58242;SDS011;50118;53.232;8.252;2022-11-23T16:07:05;6.50;;;1.60;;
58242;SDS011;50118;53.232;8.252;2022-11-23T16:09:46;4.72;;;1.83;;
58242;SDS011;50118;53.232;8.252;2022-11-23T16:12:32;3.92;;;1.85;;
58242;SDS011;50118;53.232;8.252;2022-11-23T16:20:55;3.80;;;1.88;;
58242;SDS011;50118;53.232;8.252;2022-11-23T16:23:49;6.75;;;2.00;;
58242;SDS011;50118;53.232;8.252;2022-11-23T16:26:20;6.55;;;1.90;;
58242;SDS011;50118;53.232;8.252;2022-11-23T16:28:54;5.50;;;2.10;;
58242;SDS011;50118;53.232;8.252;2022-11-23T16:34:07;7.95;;;3.28;;
58242;SDS011;50118;53.232;8.252;2022-11-23T16:36:34;17.10;;;7.47;;
58242;SDS011;50118;53.232;8.252;2022-11-23T16:38:59;33.22;;;14.30;;
58242;SDS011;50118;53.232;8.252;2022-11-23T16:41:25;50.28;;;22.45;;
58242;SDS011;50118;53.232;8.252;2022-11-23T16:43:53;39.35;;;17.70;;
58242;SDS011;50118;53.232;8.252;2022-11-23T16:46:18;21.75;;;10.00;;
58242;SDS011;50118;53.232;8.252;2022-11-23T16:48:44;13.43;;;6.80;;
58242;SDS011;50118;53.232;8.252;2022-11-23T16:51:10;17.38;;;8.43;;
58242;SDS011;50118;53.232;8.252;2022-11-23T16:53:39;14.02;;;5.97;;
58242;SDS011;50118;53.232;8.252;2022-11-23T16:56:08;11.98;;;5.40;;
58242;SDS011;50118;53.232;8.252;2022-11-23T16:58:38;9.88;;;5.13;;
58242;SDS011;50118;53.232;8.252;2022-11-23T17:01:03;8.13;;;4.13;;
58242;SDS011;50118;53.232;8.252;2022-11-23T17:03:29;7.10;;;3.95;;
58242;SDS011;50118;53.232;8.252;2022-11-23T17:05:55;7.65;;;3.20;;
58242;SDS011;50118;53.232;8.252;2022-11-23T17:08:20;6.30;;;2.67;;
58242;SDS011;50118;53.232;8.252;2022-11-23T17:10:46;7.25;;;2.72;;
58242;SDS011;50118;53.232;8.252;2022-11-23T17:13:15;4.90;;;2.25;;
58242;SDS011;50118;53.232;8.252;2022-11-23T17:15:45;5.38;;;2.40;;
58242;SDS011;50118;53.232;8.252;2022-11-23T17:18:12;7.35;;;2.65;;
58242;SDS011;50118;53.232;8.252;2022-11-23T17:20:39;8.00;;;2.42;;
58242;SDS011;50118;53.232;8.252;2022-11-23T17:23:04;7.45;;;2.10;;
58242;SDS011;50118;53.232;8.252;2022-11-23T17:25:31;6.18;;;2.50;;
58242;SDS011;50118;53.232;8.252;2022-11-23T17:27:57;7.18;;;2.40;;
58242;SDS011;50118;53.232;8.252;2022-11-23T17:30:24;8.27;;;2.83;;